sensor_id;sensor_type;location;lat;lon;timestamp;P1;durP1;ratioP1;P2;durP2;ratioP2
52106;SDS011;38105;52.968;5.974;2024-03-02T03:25:57;49.30;;;21.60;;
52106;SDS011;38105;52.968;5.974;2024-03-02T03:33:18;66.82;;;24.60;;
52106;SDS011;38105;52.968;5.974;2024-03-02T04:32:22;48.75;;;21.40;;
52106;SDS011;38105;52.968;5.974;2024-03-02T07:11:59;51.72;;;21.88;;
52106;SDS011;38105;52.968;5.974;2024-03-02T07:19:37;71.93;;;25.17;;
52106;SDS011;38105;52.968;5.974;2024-03-02T07:24:41;67.95;;;24.63;;
52106;SDS011;38105;52.968;5.974;2024-03-02T07:29:37;58.13;;;23.33;;
52106;SDS011;38105;52.968;5.974;2024-03-02T07:34:30;69.50;;;24.98;;
52106;SDS011;38105;52.968;5.974;2024-03-02T07:36:56;22.60;;;15.85;;
52106;SDS011;38105;52.968;5.974;2024-03-02T07:41:47;73.90;;;25.83;;
52106;SDS011;38105;52.968;5.974;2024-03-02T07:44:17;33.33;;;18.23;;
52106;SDS011;38105;52.968;5.974;2024-03-02T07:46:47;38.78;;;19.60;;
52106;SDS011;38105;52.968;5.974;2024-03-02T07:49:17;34.75;;;18.55;;
52106;SDS011;38105;52.968;5.974;2024-03-02T07:51:47;30.45;;;17.52;;
52106;SDS011;38105;52.968;5.974;2024-03-02T07:54:12;31.92;;;17.90;;
52106;SDS011;38105;52.968;5.974;2024-03-02T07:56:41;36.92;;;19.25;;
52106;SDS011;38105;52.968;5.974;2024-03-02T07:59:07;34.72;;;18.75;;
52106;SDS011;38105;52.968;5.974;2024-03-02T08:01:33;37.70;;;20.00;;
52106;SDS011;38105;52.968;5.974;2024-03-02T08:04:00;35.20;;;19.30;;
52106;SDS011;38105;52.968;5.974;2024-03-02T08:06:30;35.28;;;19.50;;
52106;SDS011;38105;52.968;5.974;2024-03-02T08:08:57;21.95;;;16.05;;
52106;SDS011;38105;52.968;5.974;2024-03-02T08:11:24;30.00;;;18.25;;
52106;SDS011;38105;52.968;5.974;2024-03-02T08:13:52;30.25;;;18.33;;
52106;SDS011;38105;52.968;5.974;2024-03-02T08:16:20;30.63;;;18.33;;
52106;SDS011;38105;52.968;5.974;2024-03-02T08:18:50;29.73;;;18.25;;
52106;SDS011;38105;52.968;5.974;2024-03-02T08:21:17;30.00;;;18.25;;
52106;SDS011;38105;52.968;5.974;2024-03-02T08:23:43;33.65;;;19.02;;
52106;SDS011;38105;52.968;5.974;2024-03-02T08:26:10;26.80;;;17.42;;
52106;SDS011;38105;52.968;5.974;2024-03-02T08:28:36;29.27;;;17.98;;
52106;SDS011;38105;52.968;5.974;2024-03-02T08:31:07;38.03;;;20.15;;
52106;SDS011;38105;52.968;5.974;2024-03-02T08:33:33;41.10;;;20.73;;
52106;SDS011;38105;52.968;5.974;2024-03-02T08:36:03;41.78;;;21.00;;
52106;SDS011;38105;52.968;5.974;2024-03-02T08:38:33;40.45;;;20.67;;
52106;SDS011;38105;52.968;5.974;2024-03-02T08:40:59;36.72;;;20.00;;
52106;SDS011;38105;52.968;5.974;2024-03-02T08:43:25;37.95;;;20.13;;
52106;SDS011;38105;52.968;5.974;2024-03-02T08:45:51;37.72;;;20.10;;
52106;SDS011;38105;52.968;5.974;2024-03-02T08:48:22;35.03;;;19.50;;
52106;SDS011;38105;52.968;5.974;2024-03-02T08:50:53;32.42;;;18.80;;
52106;SDS011;38105;52.968;5.974;2024-03-02T08:53:28;24.38;;;16.52;;
52106;SDS011;38105;52.968;5.974;2024-03-02T08:58:20;58.60;;;24.65;;
52106;SDS011;38105;52.968;5.974;2024-03-02T09:00:46;28.70;;;17.63;;
52106;SDS011;38105;52.968;5.974;2024-03-02T09:03:15;30.05;;;18.05;;
52106;SDS011;38105;52.968;5.974;2024-03-02T09:05:43;29.90;;;18.10;;
52106;SDS011;38105;52.968;5.974;2024-03-02T09:08:09;32.15;;;18.65;;
52106;SDS011;38105;52.968;5.974;2024-03-02T09:10:35;34.38;;;19.10;;
52106;SDS011;38105;52.968;5.974;2024-03-02T09:13:01;36.13;;;19.58;;
52106;SDS011;38105;52.968;5.974;2024-03-02T09:15:27;35.08;;;19.27;;
52106;SDS011;38105;52.968;5.974;2024-03-02T09:17:56;34.53;;;19.13;;
52106;SDS011;38105;52.968;5.974;2024-03-02T09:20:22;34.33;;;19.02;;
52106;SDS011;38105;52.968;5.974;2024-03-02T09:22:48;35.70;;;19.48;;
52106;SDS011;38105;52.968;5.974;2024-03-02T09:25:14;36.45;;;19.58;;
52106;SDS011;38105;52.968;5.974;2024-03-02T09:27:41;37.33;;;20.02;;
52106;SDS011;38105;52.968;5.974;2024-03-02T09:30:07;37.03;;;19.88;;
52106;SDS011;38105;52.968;5.974;2024-03-02T09:32:34;36.65;;;19.77;;
52106;SDS011;38105;52.968;5.974;2024-03-02T09:35:07;35.15;;;19.33;;
52106;SDS011;38105;52.968;5.974;2024-03-02T09:37:37;32.65;;;18.80;;
52106;SDS011;38105;52.968;5.974;2024-03-02T09:40:03;30.60;;;18.30;;
52106;SDS011;38105;52.968;5.974;2024-03-02T09:42:29;28.67;;;17.60;;
52106;SDS011;38105;52.968;5.974;2024-03-02T09:44:57;27.25;;;17.05;;
52106;SDS011;38105;52.968;5.974;2024-03-02T09:47:23;25.70;;;16.67;;
52106;SDS011;38105;52.968;5.974;2024-03-02T09:49:49;26.85;;;17.08;;
52106;SDS011;38105;52.968;5.974;2024-03-02T09:52:15;27.25;;;17.20;;
52106;SDS011;38105;52.968;5.974;2024-03-02T09:54:43;26.23;;;16.92;;
52106;SDS011;38105;52.968;5.974;2024-03-02T09:57:09;26.23;;;16.95;;
52106;SDS011;38105;52.968;5.974;2024-03-02T09:59:35;23.05;;;15.90;;
52106;SDS011;38105;52.968;5.974;2024-03-02T10:02:01;24.40;;;16.48;;
52106;SDS011;38105;52.968;5.974;2024-03-02T10:04:32;23.02;;;15.98;;
52106;SDS011;38105;52.968;5.974;2024-03-02T10:07:16;22.23;;;15.60;;
52106;SDS011;38105;52.968;5.974;2024-03-02T10:09:47;22.35;;;15.48;;
52106;SDS011;38105;52.968;5.974;2024-03-02T10:12:15;24.55;;;16.30;;
52106;SDS011;38105;52.968;5.974;2024-03-02T10:14:41;25.63;;;16.88;;
52106;SDS011;38105;52.968;5.974;2024-03-02T10:17:17;25.00;;;16.48;;
52106;SDS011;38105;52.968;5.974;2024-03-02T10:19:46;23.42;;;15.95;;
52106;SDS011;38105;52.968;5.974;2024-03-02T10:22:12;22.33;;;15.68;;
52106;SDS011;38105;52.968;5.974;2024-03-02T10:24:40;18.70;;;14.10;;
52106;SDS011;38105;52.968;5.974;2024-03-02T10:27:09;18.83;;;14.50;;
52106;SDS011;38105;52.968;5.974;2024-03-02T10:32:07;17.30;;;13.77;;
52106;SDS011;38105;52.968;5.974;2024-03-02T10:37:01;50.35;;;22.40;;
52106;SDS011;38105;52.968;5.974;2024-03-02T10:41:56;47.50;;;21.77;;
52106;SDS011;38105;52.968;5.974;2024-03-02T10:44:26;18.50;;;14.00;;
52106;SDS011;38105;52.968;5.974;2024-03-02T10:49:30;50.30;;;22.38;;
52106;SDS011;38105;52.968;5.974;2024-03-02T10:51:57;22.55;;;15.15;;
52106;SDS011;38105;52.968;5.974;2024-03-02T10:54:23;18.35;;;14.10;;
52106;SDS011;38105;52.968;5.974;2024-03-02T10:59:28;48.78;;;22.10;;
52106;SDS011;38105;52.968;5.974;2024-03-02T11:04:32;45.72;;;21.50;;
52106;SDS011;38105;52.968;5.974;2024-03-02T11:09:34;44.00;;;21.10;;
52106;SDS011;38105;52.968;5.974;2024-03-02T11:14:48;17.77;;;13.90;;
52106;SDS011;38105;52.968;5.974;2024-03-02T11:19:46;43.92;;;21.00;;
52106;SDS011;38105;52.968;5.974;2024-03-02T11:22:15;18.35;;;13.82;;
52106;SDS011;38105;52.968;5.974;2024-03-02T11:24:48;17.07;;;13.40;;
52106;SDS011;38105;52.968;5.974;2024-03-02T11:28:00;16.88;;;13.32;;
52106;SDS011;38105;52.968;5.974;2024-03-02T11:33:07;15.87;;;13.83;;
52106;SDS011;38105;52.968;5.974;2024-03-02T11:35:36;17.27;;;13.60;;
52106;SDS011;38105;52.968;5.974;2024-03-02T11:38:12;16.15;;;13.27;;
52106;SDS011;38105;52.968;5.974;2024-03-02T11:40:39;16.50;;;13.83;;
52106;SDS011;38105;52.968;5.974;2024-03-02T11:45:31;42.42;;;20.75;;
52106;SDS011;38105;52.968;5.974;2024-03-02T11:47:58;18.67;;;13.95;;
52106;SDS011;38105;52.968;5.974;2024-03-02T11:50:35;16.77;;;13.45;;
52106;SDS011;38105;52.968;5.974;2024-03-02T11:53:15;17.23;;;13.88;;
52106;SDS011;38105;52.968;5.974;2024-03-02T11:55:42;16.80;;;13.68;;
52106;SDS011;38105;52.968;5.974;2024-03-02T11:58:12;16.88;;;13.38;;
52106;SDS011;38105;52.968;5.974;2024-03-02T12:00:41;17.15;;;13.55;;
52106;SDS011;38105;52.968;5.974;2024-03-02T12:03:08;16.73;;;13.57;;
52106;SDS011;38105;52.968;5.974;2024-03-02T12:05:35;17.13;;;13.57;;
52106;SDS011;38105;52.968;5.974;2024-03-02T12:08:06;16.95;;;13.52;;
52106;SDS011;38105;52.968;5.974;2024-03-02T12:10:33;17.15;;;13.60;;
52106;SDS011;38105;52.968;5.974;2024-03-02T12:13:10;17.52;;;13.63;;
52106;SDS011;38105;52.968;5.974;2024-03-02T12:15:37;17.40;;;13.52;;
52106;SDS011;38105;52.968;5.974;2024-03-02T12:18:04;17.58;;;13.50;;
52106;SDS011;38105;52.968;5.974;2024-03-02T12:20:34;17.20;;;13.43;;
52106;SDS011;38105;52.968;5.974;2024-03-02T12:23:01;17.25;;;13.65;;
52106;SDS011;38105;52.968;5.974;2024-03-02T12:25:31;17.02;;;13.35;;
52106;SDS011;38105;52.968;5.974;2024-03-02T12:28:00;16.77;;;13.35;;
52106;SDS011;38105;52.968;5.974;2024-03-02T12:30:27;16.52;;;13.13;;
52106;SDS011;38105;52.968;5.974;2024-03-02T12:32:55;16.92;;;13.45;;
52106;SDS011;38105;52.968;5.974;2024-03-02T12:35:20;16.70;;;13.32;;
52106;SDS011;38105;52.968;5.974;2024-03-02T12:37:47;16.25;;;13.40;;
52106;SDS011;38105;52.968;5.974;2024-03-02T12:42:40;42.20;;;20.70;;
52106;SDS011;38105;52.968;5.974;2024-03-02T12:45:09;17.63;;;13.68;;
52106;SDS011;38105;52.968;5.974;2024-03-02T12:47:39;17.30;;;13.60;;
52106;SDS011;38105;52.968;5.974;2024-03-02T12:50:09;16.73;;;13.20;;
52106;SDS011;38105;52.968;5.974;2024-03-02T12:52:37;17.33;;;13.65;;
52106;SDS011;38105;52.968;5.974;2024-03-02T12:55:06;16.83;;;13.23;;
52106;SDS011;38105;52.968;5.974;2024-03-02T12:57:39;17.58;;;13.65;;
52106;SDS011;38105;52.968;5.974;2024-03-02T13:00:05;17.05;;;13.35;;
52106;SDS011;38105;52.968;5.974;2024-03-02T13:02:36;17.35;;;13.80;;
52106;SDS011;38105;52.968;5.974;2024-03-02T13:05:04;17.50;;;14.07;;
52106;SDS011;38105;52.968;5.974;2024-03-02T13:07:36;17.00;;;13.90;;
52106;SDS011;38105;52.968;5.974;2024-03-02T13:10:02;17.10;;;14.27;;
52106;SDS011;38105;52.968;5.974;2024-03-02T13:12:34;16.25;;;13.32;;
52106;SDS011;38105;52.968;5.974;2024-03-02T13:15:03;17.00;;;13.63;;
52106;SDS011;38105;52.968;5.974;2024-03-02T13:17:36;16.48;;;13.20;;
52106;SDS011;38105;52.968;5.974;2024-03-02T13:20:02;17.52;;;13.68;;
52106;SDS011;38105;52.968;5.974;2024-03-02T13:22:29;17.20;;;13.50;;
52106;SDS011;38105;52.968;5.974;2024-03-02T13:24:58;17.23;;;13.55;;
52106;SDS011;38105;52.968;5.974;2024-03-02T13:27:25;17.05;;;13.52;;
52106;SDS011;38105;52.968;5.974;2024-03-02T13:29:53;17.20;;;13.30;;
52106;SDS011;38105;52.968;5.974;2024-03-02T13:32:24;17.45;;;13.60;;
52106;SDS011;38105;52.968;5.974;2024-03-02T13:34:54;17.67;;;13.55;;
52106;SDS011;38105;52.968;5.974;2024-03-02T13:37:20;18.40;;;13.95;;
52106;SDS011;38105;52.968;5.974;2024-03-02T13:39:46;18.77;;;14.05;;
52106;SDS011;38105;52.968;5.974;2024-03-02T13:42:15;18.95;;;14.15;;
52106;SDS011;38105;52.968;5.974;2024-03-02T13:44:44;18.83;;;14.13;;
52106;SDS011;38105;52.968;5.974;2024-03-02T13:47:16;18.65;;;13.98;;
52106;SDS011;38105;52.968;5.974;2024-03-02T13:49:44;18.08;;;13.73;;
52106;SDS011;38105;52.968;5.974;2024-03-02T13:52:11;18.20;;;13.82;;
52106;SDS011;38105;52.968;5.974;2024-03-02T13:54:42;17.98;;;13.60;;
52106;SDS011;38105;52.968;5.974;2024-03-02T13:57:09;17.70;;;13.57;;
52106;SDS011;38105;52.968;5.974;2024-03-02T13:59:36;17.75;;;13.63;;
52106;SDS011;38105;52.968;5.974;2024-03-02T14:02:02;17.88;;;13.63;;
52106;SDS011;38105;52.968;5.974;2024-03-02T14:04:34;17.85;;;13.55;;
52106;SDS011;38105;52.968;5.974;2024-03-02T14:07:00;18.17;;;13.73;;
52106;SDS011;38105;52.968;5.974;2024-03-02T14:09:35;18.52;;;13.88;;
52106;SDS011;38105;52.968;5.974;2024-03-02T14:12:04;19.00;;;14.27;;
52106;SDS011;38105;52.968;5.974;2024-03-02T14:14:32;18.73;;;13.95;;
52106;SDS011;38105;52.968;5.974;2024-03-02T14:16:58;19.00;;;14.13;;
52106;SDS011;38105;52.968;5.974;2024-03-02T14:19:39;18.65;;;14.00;;
52106;SDS011;38105;52.968;5.974;2024-03-02T14:22:08;18.73;;;14.07;;
52106;SDS011;38105;52.968;5.974;2024-03-02T14:24:38;18.95;;;14.05;;
52106;SDS011;38105;52.968;5.974;2024-03-02T14:27:04;18.92;;;13.98;;
52106;SDS011;38105;52.968;5.974;2024-03-02T14:29:30;19.33;;;14.18;;
52106;SDS011;38105;52.968;5.974;2024-03-02T14:31:58;20.58;;;14.65;;
52106;SDS011;38105;52.968;5.974;2024-03-02T14:34:23;21.02;;;14.77;;
52106;SDS011;38105;52.968;5.974;2024-03-02T14:36:49;20.98;;;14.77;;
52106;SDS011;38105;52.968;5.974;2024-03-02T14:39:18;20.73;;;14.70;;
52106;SDS011;38105;52.968;5.974;2024-03-02T14:41:44;19.88;;;14.40;;
52106;SDS011;38105;52.968;5.974;2024-03-02T14:44:10;19.80;;;14.45;;
52106;SDS011;38105;52.968;5.974;2024-03-02T14:46:40;19.60;;;14.30;;
52106;SDS011;38105;52.968;5.974;2024-03-02T14:49:06;19.60;;;14.38;;
52106;SDS011;38105;52.968;5.974;2024-03-02T14:51:32;19.15;;;14.27;;
52106;SDS011;38105;52.968;5.974;2024-03-02T14:54:04;19.23;;;14.20;;
52106;SDS011;38105;52.968;5.974;2024-03-02T14:56:30;19.20;;;14.13;;
52106;SDS011;38105;52.968;5.974;2024-03-02T14:58:56;19.08;;;14.23;;
52106;SDS011;38105;52.968;5.974;2024-03-02T15:01:25;18.65;;;13.93;;
52106;SDS011;38105;52.968;5.974;2024-03-02T15:03:53;18.67;;;13.93;;
52106;SDS011;38105;52.968;5.974;2024-03-02T15:06:18;18.67;;;13.90;;
52106;SDS011;38105;52.968;5.974;2024-03-02T15:08:44;18.35;;;13.77;;
52106;SDS011;38105;52.968;5.974;2024-03-02T15:11:12;17.65;;;13.52;;
52106;SDS011;38105;52.968;5.974;2024-03-02T15:13:38;17.77;;;13.70;;
52106;SDS011;38105;52.968;5.974;2024-03-02T15:16:04;17.92;;;13.77;;
52106;SDS011;38105;52.968;5.974;2024-03-02T15:18:36;18.23;;;14.03;;
52106;SDS011;38105;52.968;5.974;2024-03-02T15:21:02;18.20;;;14.60;;
52106;SDS011;38105;52.968;5.974;2024-03-02T15:23:37;18.55;;;14.55;;
52106;SDS011;38105;52.968;5.974;2024-03-02T15:28:28;41.10;;;20.43;;
52106;SDS011;38105;52.968;5.974;2024-03-02T15:33:22;41.03;;;20.17;;
52106;SDS011;38105;52.968;5.974;2024-03-02T15:38:22;43.05;;;20.80;;
52106;SDS011;38105;52.968;5.974;2024-03-02T15:43:14;43.90;;;21.00;;
52106;SDS011;38105;52.968;5.974;2024-03-02T15:45:40;15.77;;;13.10;;
52106;SDS011;38105;52.968;5.974;2024-03-02T15:50:34;46.65;;;21.55;;
52106;SDS011;38105;52.968;5.974;2024-03-02T15:53:02;17.48;;;13.68;;
52106;SDS011;38105;52.968;5.974;2024-03-02T15:55:31;14.85;;;13.30;;
52106;SDS011;38105;52.968;5.974;2024-03-02T15:57:56;14.17;;;12.70;;
52106;SDS011;38105;52.968;5.974;2024-03-02T16:00:26;17.45;;;13.55;;
52106;SDS011;38105;52.968;5.974;2024-03-02T16:02:52;17.80;;;13.82;;
52106;SDS011;38105;52.968;5.974;2024-03-02T16:05:24;17.40;;;13.63;;
52106;SDS011;38105;52.968;5.974;2024-03-02T16:07:53;16.40;;;13.40;;
52106;SDS011;38105;52.968;5.974;2024-03-02T16:10:19;18.85;;;14.75;;
52106;SDS011;38105;52.968;5.974;2024-03-02T16:12:52;18.55;;;14.00;;
52106;SDS011;38105;52.968;5.974;2024-03-02T16:15:21;16.00;;;13.32;;
52106;SDS011;38105;52.968;5.974;2024-03-02T16:17:50;17.52;;;13.77;;
52106;SDS011;38105;52.968;5.974;2024-03-02T16:20:16;17.52;;;13.75;;
52106;SDS011;38105;52.968;5.974;2024-03-02T16:22:42;17.50;;;13.55;;
52106;SDS011;38105;52.968;5.974;2024-03-02T16:25:07;17.50;;;13.87;;
52106;SDS011;38105;52.968;5.974;2024-03-02T16:27:40;17.57;;;14.10;;
52106;SDS011;38105;52.968;5.974;2024-03-02T16:30:12;19.00;;;14.70;;
52106;SDS011;38105;52.968;5.974;2024-03-02T16:32:39;20.20;;;15.70;;
52106;SDS011;38105;52.968;5.974;2024-03-02T16:35:07;18.60;;;14.45;;
52106;SDS011;38105;52.968;5.974;2024-03-02T16:37:43;20.00;;;15.40;;
52106;SDS011;38105;52.968;5.974;2024-03-02T16:40:12;17.50;;;13.85;;
52106;SDS011;38105;52.968;5.974;2024-03-02T16:42:38;16.25;;;13.45;;
52106;SDS011;38105;52.968;5.974;2024-03-02T16:47:30;43.60;;;20.90;;
52106;SDS011;38105;52.968;5.974;2024-03-02T16:52:23;42.42;;;20.63;;
52106;SDS011;38105;52.968;5.974;2024-03-02T16:54:56;17.55;;;14.35;;
52106;SDS011;38105;52.968;5.974;2024-03-02T16:57:22;17.35;;;14.35;;
52106;SDS011;38105;52.968;5.974;2024-03-02T16:59:47;13.65;;;12.20;;
52106;SDS011;38105;52.968;5.974;2024-03-02T17:04:39;42.33;;;20.70;;
52106;SDS011;38105;52.968;5.974;2024-03-02T17:09:31;43.35;;;20.80;;
52106;SDS011;38105;52.968;5.974;2024-03-02T17:11:57;17.20;;;13.85;;
52106;SDS011;38105;52.968;5.974;2024-03-02T17:14:23;15.40;;;13.07;;
52106;SDS011;38105;52.968;5.974;2024-03-02T17:16:50;15.48;;;13.35;;
52106;SDS011;38105;52.968;5.974;2024-03-02T17:19:17;15.77;;;13.55;;
52106;SDS011;38105;52.968;5.974;2024-03-02T17:21:48;15.85;;;13.55;;
52106;SDS011;38105;52.968;5.974;2024-03-02T17:26:40;39.07;;;19.83;;
52106;SDS011;38105;52.968;5.974;2024-03-02T17:31:32;39.83;;;20.07;;
52106;SDS011;38105;52.968;5.974;2024-03-02T17:33:58;15.00;;;13.30;;
52106;SDS011;38105;52.968;5.974;2024-03-02T17:38:54;31.65;;;17.98;;
52106;SDS011;38105;52.968;5.974;2024-03-02T17:43:46;30.25;;;17.58;;
52106;SDS011;38105;52.968;5.974;2024-03-02T17:48:44;31.23;;;17.77;;
52106;SDS011;38105;52.968;5.974;2024-03-02T17:53:38;31.35;;;17.88;;
52106;SDS011;38105;52.968;5.974;2024-03-02T17:58:30;31.13;;;18.00;;
52106;SDS011;38105;52.968;5.974;2024-03-02T18:03:23;32.17;;;18.00;;
52106;SDS011;38105;52.968;5.974;2024-03-02T18:08:14;31.23;;;17.83;;
52106;SDS011;38105;52.968;5.974;2024-03-02T18:13:06;31.73;;;17.83;;
52106;SDS011;38105;52.968;5.974;2024-03-02T18:18:00;31.08;;;17.77;;
52106;SDS011;38105;52.968;5.974;2024-03-02T18:25:21;35.83;;;19.02;;
52106;SDS011;38105;52.968;5.974;2024-03-02T18:30:13;31.52;;;17.80;;
52106;SDS011;38105;52.968;5.974;2024-03-02T18:35:08;29.67;;;17.42;;
52106;SDS011;38105;52.968;5.974;2024-03-02T18:40:00;28.33;;;16.83;;
52106;SDS011;38105;52.968;5.974;2024-03-02T18:44:54;31.23;;;17.77;;
52106;SDS011;38105;52.968;5.974;2024-03-02T18:49:48;32.03;;;17.90;;
52106;SDS011;38105;52.968;5.974;2024-03-02T18:54:53;33.58;;;18.33;;
52106;SDS011;38105;52.968;5.974;2024-03-02T18:59:53;32.07;;;17.90;;
52106;SDS011;38105;52.968;5.974;2024-03-02T19:04:49;34.77;;;18.70;;
52106;SDS011;38105;52.968;5.974;2024-03-02T19:09:41;34.97;;;18.77;;
52106;SDS011;38105;52.968;5.974;2024-03-02T19:14:32;35.00;;;18.70;;
52106;SDS011;38105;52.968;5.974;2024-03-02T19:19:25;35.55;;;18.83;;
52106;SDS011;38105;52.968;5.974;2024-03-02T19:24:23;36.55;;;19.13;;
52106;SDS011;38105;52.968;5.974;2024-03-02T19:26:48;15.38;;;13.40;;
52106;SDS011;38105;52.968;5.974;2024-03-02T19:29:17;16.65;;;14.27;;
52106;SDS011;38105;52.968;5.974;2024-03-02T19:31:43;17.05;;;13.82;;
52106;SDS011;38105;52.968;5.974;2024-03-02T19:34:08;17.00;;;13.88;;
52106;SDS011;38105;52.968;5.974;2024-03-02T19:36:34;17.63;;;14.05;;
52106;SDS011;38105;52.968;5.974;2024-03-02T19:39:00;18.40;;;14.25;;
52106;SDS011;38105;52.968;5.974;2024-03-02T19:41:26;18.27;;;14.20;;
52106;SDS011;38105;52.968;5.974;2024-03-02T19:43:52;18.10;;;14.20;;
52106;SDS011;38105;52.968;5.974;2024-03-02T19:46:19;18.60;;;14.25;;
52106;SDS011;38105;52.968;5.974;2024-03-02T19:48:47;19.15;;;14.43;;
52106;SDS011;38105;52.968;5.974;2024-03-02T19:51:16;18.95;;;14.32;;
52106;SDS011;38105;52.968;5.974;2024-03-02T19:53:42;19.17;;;14.27;;
52106;SDS011;38105;52.968;5.974;2024-03-02T19:56:18;18.90;;;14.10;;
52106;SDS011;38105;52.968;5.974;2024-03-02T19:58:44;19.27;;;14.27;;
52106;SDS011;38105;52.968;5.974;2024-03-02T20:01:16;18.80;;;14.10;;
52106;SDS011;38105;52.968;5.974;2024-03-02T20:03:43;18.85;;;14.05;;
52106;SDS011;38105;52.968;5.974;2024-03-02T20:06:09;19.13;;;14.20;;
52106;SDS011;38105;52.968;5.974;2024-03-02T20:08:35;19.10;;;14.25;;
52106;SDS011;38105;52.968;5.974;2024-03-02T20:11:04;19.23;;;14.20;;
52106;SDS011;38105;52.968;5.974;2024-03-02T20:13:30;19.20;;;14.18;;
52106;SDS011;38105;52.968;5.974;2024-03-02T20:15:56;19.40;;;14.30;;
52106;SDS011;38105;52.968;5.974;2024-03-02T20:18:23;19.35;;;14.20;;
52106;SDS011;38105;52.968;5.974;2024-03-02T20:20:49;19.23;;;14.20;;
52106;SDS011;38105;52.968;5.974;2024-03-02T20:23:15;19.08;;;14.10;;
52106;SDS011;38105;52.968;5.974;2024-03-02T20:25:41;19.35;;;14.25;;
52106;SDS011;38105;52.968;5.974;2024-03-02T20:28:16;19.17;;;14.25;;
52106;SDS011;38105;52.968;5.974;2024-03-02T20:30:42;19.33;;;14.27;;
52106;SDS011;38105;52.968;5.974;2024-03-02T20:33:10;19.45;;;14.30;;
52106;SDS011;38105;52.968;5.974;2024-03-02T20:35:36;19.92;;;14.57;;
52106;SDS011;38105;52.968;5.974;2024-03-02T20:38:17;19.88;;;14.55;;
52106;SDS011;38105;52.968;5.974;2024-03-02T20:40:43;19.15;;;14.20;;
52106;SDS011;38105;52.968;5.974;2024-03-02T20:43:11;19.17;;;14.23;;
52106;SDS011;38105;52.968;5.974;2024-03-02T20:45:38;18.52;;;13.88;;
52106;SDS011;38105;52.968;5.974;2024-03-02T20:48:07;18.60;;;14.25;;
52106;SDS011;38105;52.968;5.974;2024-03-02T20:50:40;18.75;;;14.10;;
52106;SDS011;38105;52.968;5.974;2024-03-02T20:53:08;18.48;;;14.13;;
52106;SDS011;38105;52.968;5.974;2024-03-02T20:55:34;18.25;;;14.15;;
52106;SDS011;38105;52.968;5.974;2024-03-02T20:58:01;18.27;;;14.10;;
52106;SDS011;38105;52.968;5.974;2024-03-02T21:00:27;18.40;;;14.20;;
52106;SDS011;38105;52.968;5.974;2024-03-02T21:02:52;17.58;;;13.95;;
52106;SDS011;38105;52.968;5.974;2024-03-02T21:05:20;18.05;;;14.13;;
52106;SDS011;38105;52.968;5.974;2024-03-02T21:07:46;17.80;;;14.02;;
52106;SDS011;38105;52.968;5.974;2024-03-02T21:10:12;17.75;;;14.18;;
52106;SDS011;38105;52.968;5.974;2024-03-02T21:12:38;17.10;;;13.80;;
52106;SDS011;38105;52.968;5.974;2024-03-02T21:15:06;16.60;;;13.75;;
52106;SDS011;38105;52.968;5.974;2024-03-02T21:17:32;17.10;;;13.90;;
52106;SDS011;38105;52.968;5.974;2024-03-02T21:19:58;17.58;;;14.02;;
52106;SDS011;38105;52.968;5.974;2024-03-02T21:22:33;17.00;;;13.85;;
52106;SDS011;38105;52.968;5.974;2024-03-02T21:25:06;16.00;;;13.63;;
52106;SDS011;38105;52.968;5.974;2024-03-02T21:27:36;17.45;;;14.00;;
52106;SDS011;38105;52.968;5.974;2024-03-02T21:30:05;17.25;;;14.05;;
52106;SDS011;38105;52.968;5.974;2024-03-02T21:32:35;16.95;;;13.85;;
52106;SDS011;38105;52.968;5.974;2024-03-02T21:35:01;17.67;;;14.13;;
52106;SDS011;38105;52.968;5.974;2024-03-02T21:37:30;16.90;;;13.93;;
52106;SDS011;38105;52.968;5.974;2024-03-02T21:39:59;16.98;;;13.95;;
52106;SDS011;38105;52.968;5.974;2024-03-02T21:42:25;17.73;;;14.07;;
52106;SDS011;38105;52.968;5.974;2024-03-02T21:44:54;17.90;;;14.13;;
52106;SDS011;38105;52.968;5.974;2024-03-02T21:47:30;17.65;;;14.10;;
52106;SDS011;38105;52.968;5.974;2024-03-02T21:49:56;17.45;;;14.10;;
52106;SDS011;38105;52.968;5.974;2024-03-02T21:52:22;18.05;;;14.20;;
52106;SDS011;38105;52.968;5.974;2024-03-02T21:54:48;17.42;;;14.10;;
52106;SDS011;38105;52.968;5.974;2024-03-02T21:57:14;16.70;;;13.70;;
52106;SDS011;38105;52.968;5.974;2024-03-02T21:59:45;17.50;;;14.23;;
52106;SDS011;38105;52.968;5.974;2024-03-02T22:02:11;16.58;;;13.85;;
52106;SDS011;38105;52.968;5.974;2024-03-02T22:04:39;16.88;;;13.95;;
52106;SDS011;38105;52.968;5.974;2024-03-02T22:07:07;16.63;;;13.80;;
52106;SDS011;38105;52.968;5.974;2024-03-02T22:09:39;15.80;;;13.52;;
52106;SDS011;38105;52.968;5.974;2024-03-02T22:12:05;14.90;;;13.27;;
52106;SDS011;38105;52.968;5.974;2024-03-02T22:14:36;14.10;;;12.63;;
52106;SDS011;38105;52.968;5.974;2024-03-02T22:17:03;14.00;;;12.57;;
52106;SDS011;38105;52.968;5.974;2024-03-02T22:19:29;14.15;;;12.70;;
52106;SDS011;38105;52.968;5.974;2024-03-02T22:21:55;14.90;;;13.40;;
52106;SDS011;38105;52.968;5.974;2024-03-02T22:24:24;13.77;;;12.43;;
52106;SDS011;38105;52.968;5.974;2024-03-02T22:26:51;13.57;;;12.23;;
52106;SDS011;38105;52.968;5.974;2024-03-02T22:29:17;14.20;;;12.80;;
52106;SDS011;38105;52.968;5.974;2024-03-02T22:31:43;13.15;;;11.80;;
52106;SDS011;38105;52.968;5.974;2024-03-02T22:34:12;14.60;;;13.10;;
52106;SDS011;38105;52.968;5.974;2024-03-02T22:36:38;14.00;;;12.60;;
52106;SDS011;38105;52.968;5.974;2024-03-02T22:39:04;13.43;;;12.17;;
52106;SDS011;38105;52.968;5.974;2024-03-02T22:41:30;14.60;;;13.20;;
52106;SDS011;38105;52.968;5.974;2024-03-02T22:43:56;13.90;;;12.50;;
52106;SDS011;38105;52.968;5.974;2024-03-02T22:46:25;14.40;;;13.00;;
52106;SDS011;38105;52.968;5.974;2024-03-02T22:48:51;13.25;;;11.90;;
52106;SDS011;38105;52.968;5.974;2024-03-02T22:51:23;13.90;;;12.53;;
52106;SDS011;38105;52.968;5.974;2024-03-02T22:53:55;13.95;;;12.60;;
52106;SDS011;38105;52.968;5.974;2024-03-02T22:56:21;14.10;;;12.65;;
52106;SDS011;38105;52.968;5.974;2024-03-02T22:58:47;13.85;;;12.50;;
52106;SDS011;38105;52.968;5.974;2024-03-02T23:01:13;13.70;;;12.35;;
52106;SDS011;38105;52.968;5.974;2024-03-02T23:03:39;13.52;;;12.23;;
52106;SDS011;38105;52.968;5.974;2024-03-02T23:06:07;13.73;;;12.40;;
52106;SDS011;38105;52.968;5.974;2024-03-02T23:08:34;14.13;;;12.80;;
52106;SDS011;38105;52.968;5.974;2024-03-02T23:11:01;13.63;;;12.27;;
52106;SDS011;38105;52.968;5.974;2024-03-02T23:13:30;13.82;;;12.48;;
52106;SDS011;38105;52.968;5.974;2024-03-02T23:15:56;14.13;;;12.70;;
52106;SDS011;38105;52.968;5.974;2024-03-02T23:18:25;13.50;;;12.15;;
52106;SDS011;38105;52.968;5.974;2024-03-02T23:20:54;13.80;;;12.43;;
52106;SDS011;38105;52.968;5.974;2024-03-02T23:23:20;13.90;;;12.52;;
52106;SDS011;38105;52.968;5.974;2024-03-02T23:25:46;13.85;;;12.48;;
52106;SDS011;38105;52.968;5.974;2024-03-02T23:28:12;13.30;;;12.00;;
52106;SDS011;38105;52.968;5.974;2024-03-02T23:30:38;14.25;;;12.80;;
52106;SDS011;38105;52.968;5.974;2024-03-02T23:33:07;14.05;;;12.70;;
52106;SDS011;38105;52.968;5.974;2024-03-02T23:35:33;14.15;;;12.70;;
52106;SDS011;38105;52.968;5.974;2024-03-02T23:37:59;14.48;;;13.02;;
52106;SDS011;38105;52.968;5.974;2024-03-02T23:40:34;13.70;;;12.37;;